sensor_id;sensor_type;location;lat;lon;timestamp;pressure;altitude;pressure_sealevel;temperature;humidity
57114;BME280;42994;51.606;9.988;2024-02-21T00:00:11;99818.56;;;6.39;100.00
57114;BME280;42994;51.606;9.988;2024-02-21T00:02:38;99812.53;;;6.37;100.00
57114;BME280;42994;51.606;9.988;2024-02-21T00:05:05;99806.25;;;6.38;100.00
57114;BME280;42994;51.606;9.988;2024-02-21T00:07:33;99803.19;;;6.32;100.00
57114;BME280;42994;51.606;9.988;2024-02-21T00:10:00;99820.84;;;6.33;100.00
57114;BME280;42994;51.606;9.988;2024-02-21T00:12:26;99820.53;;;6.37;100.00
57114;BME280;42994;51.606;9.988;2024-02-21T00:14:53;99827.13;;;6.32;100.00
57114;BME280;42994;51.606;9.988;2024-02-21T00:17:20;99836.28;;;6.30;100.00
57114;BME280;42994;51.606;9.988;2024-02-21T00:19:46;99847.59;;;6.22;100.00
57114;BME280;42994;51.606;9.988;2024-02-21T00:22:13;99844.41;;;6.19;100.00
57114;BME280;42994;51.606;9.988;2024-02-21T00:24:41;99851.69;;;6.16;100.00
57114;BME280;42994;51.606;9.988;2024-02-21T00:27:08;99854.50;;;6.15;100.00
57114;BME280;42994;51.606;9.988;2024-02-21T00:29:35;99868.22;;;6.20;100.00
57114;BME280;42994;51.606;9.988;2024-02-21T00:32:01;99873.84;;;6.17;100.00
57114;BME280;42994;51.606;9.988;2024-02-21T00:34:28;99873.69;;;6.19;100.00
57114;BME280;42994;51.606;9.988;2024-02-21T00:36:54;99872.44;;;6.13;100.00
57114;BME280;42994;51.606;9.988;2024-02-21T00:39:21;99872.16;;;6.16;100.00
57114;BME280;42994;51.606;9.988;2024-02-21T00:41:49;99877.19;;;6.19;100.00
57114;BME280;42994;51.606;9.988;2024-02-21T00:44:16;99876.91;;;6.12;100.00
57114;BME280;42994;51.606;9.988;2024-02-21T00:46:42;99879.59;;;6.12;100.00
57114;BME280;42994;51.606;9.988;2024-02-21T00:49:09;99884.91;;;6.12;100.00
57114;BME280;42994;51.606;9.988;2024-02-21T00:51:36;99877.34;;;6.08;100.00
57114;BME280;42994;51.606;9.988;2024-02-21T00:54:02;99868.94;;;6.12;100.00
57114;BME280;42994;51.606;9.988;2024-02-21T00:56:29;99878.75;;;6.12;100.00
57114;BME280;42994;51.606;9.988;2024-02-21T00:58:57;99876.63;;;6.06;100.00
57114;BME280;42994;51.606;9.988;2024-02-21T01:01:25;99869.91;;;6.11;100.00
57114;BME280;42994;51.606;9.988;2024-02-21T01:03:51;99869.38;;;6.08;100.00
57114;BME280;42994;51.606;9.988;2024-02-21T01:06:18;99860.38;;;6.09;100.00
57114;BME280;42994;51.606;9.988;2024-02-21T01:08:46;99869.50;;;6.06;100.00
57114;BME280;42994;51.606;9.988;2024-02-21T01:11:12;99869.78;;;6.03;100.00
57114;BME280;42994;51.606;9.988;2024-02-21T01:13:39;99859.28;;;6.02;100.00
57114;BME280;42994;51.606;9.988;2024-02-21T01:16:07;99868.66;;;6.06;100.00
57114;BME280;42994;51.606;9.988;2024-02-21T01:18:34;99855.66;;;6.03;100.00
57114;BME280;42994;51.606;9.988;2024-02-21T01:21:01;99863.19;;;6.07;100.00
57114;BME280;42994;51.606;9.988;2024-02-21T01:23:27;99861.38;;;6.08;100.00
57114;BME280;42994;51.606;9.988;2024-02-21T01:25:54;99862.34;;;6.07;100.00
57114;BME280;42994;51.606;9.988;2024-02-21T01:28:21;99854.50;;;6.05;100.00
57114;BME280;42994;51.606;9.988;2024-02-21T01:30:48;99855.50;;;6.14;100.00
57114;BME280;42994;51.606;9.988;2024-02-21T01:33:16;99847.78;;;6.11;100.00
57114;BME280;42994;51.606;9.988;2024-02-21T01:35:43;99853.78;;;6.13;100.00
57114;BME280;42994;51.606;9.988;2024-02-21T01:38:10;99840.63;;;6.11;100.00
57114;BME280;42994;51.606;9.988;2024-02-21T01:40:37;99832.13;;;6.08;100.00
57114;BME280;42994;51.606;9.988;2024-02-21T01:43:03;99843.72;;;6.07;100.00
57114;BME280;42994;51.606;9.988;2024-02-21T01:45:30;99853.53;;;6.06;100.00
57114;BME280;42994;51.606;9.988;2024-02-21T01:47:57;99845.84;;;6.03;100.00
57114;BME280;42994;51.606;9.988;2024-02-21T01:50:25;99841.06;;;6.07;100.00
57114;BME280;42994;51.606;9.988;2024-02-21T01:52:52;99837.84;;;6.03;100.00
57114;BME280;42994;51.606;9.988;2024-02-21T01:55:19;99831.69;;;6.03;100.00
57114;BME280;42994;51.606;9.988;2024-02-21T01:57:46;99838.81;;;6.02;100.00
57114;BME280;42994;51.606;9.988;2024-02-21T02:00:15;99831.38;;;6.06;100.00
57114;BME280;42994;51.606;9.988;2024-02-21T02:02:42;99837.44;;;6.08;100.00
57114;BME280;42994;51.606;9.988;2024-02-21T02:05:10;99838.53;;;6.05;100.00
57114;BME280;42994;51.606;9.988;2024-02-21T02:07:38;99831.38;;;6.06;100.00
57114;BME280;42994;51.606;9.988;2024-02-21T02:10:06;99824.41;;;6.05;100.00
57114;BME280;42994;51.606;9.988;2024-02-21T02:12:33;99836.00;;;6.04;100.00
57114;BME280;42994;51.606;9.988;2024-02-21T02:15:00;99829.31;;;6.00;100.00
57114;BME280;42994;51.606;9.988;2024-02-21T02:17:30;99831.97;;;6.00;100.00
57114;BME280;42994;51.606;9.988;2024-02-21T02:19:56;99828.47;;;5.99;100.00
57114;BME280;42994;51.606;9.988;2024-02-21T02:22:28;99812.19;;;6.02;100.00
57114;BME280;42994;51.606;9.988;2024-02-21T02:24:56;99806.19;;;6.00;100.00
57114;BME280;42994;51.606;9.988;2024-02-21T02:27:23;99801.41;;;6.04;100.00
57114;BME280;42994;51.606;9.988;2024-02-21T02:29:49;99816.81;;;6.00;100.00
57114;BME280;42994;51.606;9.988;2024-02-21T02:32:17;99813.06;;;6.03;100.00
57114;BME280;42994;51.606;9.988;2024-02-21T02:34:44;99801.41;;;6.04;100.00
57114;BME280;42994;51.606;9.988;2024-02-21T02:37:11;99804.78;;;6.06;100.00
57114;BME280;42994;51.606;9.988;2024-02-21T02:39:38;99808.28;;;6.06;100.00
57114;BME280;42994;51.606;9.988;2024-02-21T02:42:06;99809.13;;;6.07;100.00
57114;BME280;42994;51.606;9.988;2024-02-21T02:44:32;99797.78;;;6.05;100.00
57114;BME280;42994;51.606;9.988;2024-02-21T02:46:59;99794.00;;;6.07;100.00
57114;BME280;42994;51.606;9.988;2024-02-21T02:49:26;99787.13;;;6.05;100.00
57114;BME280;42994;51.606;9.988;2024-02-21T02:51:52;99773.00;;;6.04;100.00
57114;BME280;42994;51.606;9.988;2024-02-21T02:54:19;99775.66;;;6.04;100.00
57114;BME280;42994;51.606;9.988;2024-02-21T02:56:45;99769.19;;;6.07;100.00
57114;BME280;42994;51.606;9.988;2024-02-21T02:59:13;99772.44;;;6.01;100.00
57114;BME280;42994;51.606;9.988;2024-02-21T03:01:40;99765.28;;;6.01;100.00
57114;BME280;42994;51.606;9.988;2024-02-21T03:04:07;99763.88;;;6.07;100.00
57114;BME280;42994;51.606;9.988;2024-02-21T03:09:00;99761.63;;;6.02;100.00
57114;BME280;42994;51.606;9.988;2024-02-21T03:11:27;99748.31;;;6.02;100.00
57114;BME280;42994;51.606;9.988;2024-02-21T03:13:55;99753.97;;;5.99;100.00
57114;BME280;42994;51.606;9.988;2024-02-21T03:16:23;99745.13;;;5.99;100.00
57114;BME280;42994;51.606;9.988;2024-02-21T03:18:54;99748.91;;;5.96;100.00
57114;BME280;42994;51.606;9.988;2024-02-21T03:21:20;99752.81;;;5.92;100.00
57114;BME280;42994;51.606;9.988;2024-02-21T03:23:47;99753.78;;;5.91;100.00
57114;BME280;42994;51.606;9.988;2024-02-21T03:26:13;99752.13;;;5.90;100.00
57114;BME280;42994;51.606;9.988;2024-02-21T03:28:42;99761.78;;;5.91;100.00
57114;BME280;42994;51.606;9.988;2024-02-21T03:31:11;99757.72;;;5.87;100.00
57114;BME280;42994;51.606;9.988;2024-02-21T03:33:39;99771.03;;;5.87;100.00
57114;BME280;42994;51.606;9.988;2024-02-21T03:36:06;99766.69;;;5.86;100.00
57114;BME280;42994;51.606;9.988;2024-02-21T03:38:32;99772.16;;;5.84;100.00
57114;BME280;42994;51.606;9.988;2024-02-21T03:40:59;99765.28;;;5.91;100.00
57114;BME280;42994;51.606;9.988;2024-02-21T03:43:26;99760.81;;;5.92;100.00
57114;BME280;42994;51.606;9.988;2024-02-21T03:45:52;99765.00;;;5.94;100.00
57114;BME280;42994;51.606;9.988;2024-02-21T03:48:19;99758.00;;;5.93;100.00
57114;BME280;42994;51.606;9.988;2024-02-21T03:50:47;99752.00;;;5.91;100.00
57114;BME280;42994;51.606;9.988;2024-02-21T03:53:14;99757.00;;;5.94;100.00
57114;BME280;42994;51.606;9.988;2024-02-21T03:55:40;99737.81;;;5.91;100.00
57114;BME280;42994;51.606;9.988;2024-02-21T03:58:07;99739.38;;;5.93;100.00
57114;BME280;42994;51.606;9.988;2024-02-21T04:00:33;99734.88;;;5.94;100.00
57114;BME280;42994;51.606;9.988;2024-02-21T04:03:00;99730.84;;;6.00;100.00
57114;BME280;42994;51.606;9.988;2024-02-21T04:05:28;99723.53;;;6.02;100.00
57114;BME280;42994;51.606;9.988;2024-02-21T04:07:56;99726.22;;;6.02;100.00
57114;BME280;42994;51.606;9.988;2024-02-21T04:10:22;99714.59;;;6.03;100.00
57114;BME280;42994;51.606;9.988;2024-02-21T04:12:49;99708.28;;;6.04;100.00
57114;BME280;42994;51.606;9.988;2024-02-21T04:15:16;99706.88;;;6.00;100.00
57114;BME280;42994;51.606;9.988;2024-02-21T04:17:44;99692.88;;;5.97;100.00
57114;BME280;42994;51.606;9.988;2024-02-21T04:20:14;99695.56;;;5.97;100.00
57114;BME280;42994;51.606;9.988;2024-02-21T04:22:42;99690.38;;;5.96;100.00
57114;BME280;42994;51.606;9.988;2024-02-21T04:25:10;99696.13;;;5.91;100.00
57114;BME280;42994;51.606;9.988;2024-02-21T04:27:37;99685.47;;;5.91;100.00
57114;BME280;42994;51.606;9.988;2024-02-21T04:30:05;99699.59;;;5.92;100.00
57114;BME280;42994;51.606;9.988;2024-02-21T04:32:32;99695.13;;;5.92;100.00
57114;BME280;42994;51.606;9.988;2024-02-21T04:34:59;99696.25;;;5.90;100.00
57114;BME280;42994;51.606;9.988;2024-02-21T04:37:26;99684.06;;;5.87;100.00
57114;BME280;42994;51.606;9.988;2024-02-21T04:39:52;99686.44;;;5.90;100.00
57114;BME280;42994;51.606;9.988;2024-02-21T04:42:20;99686.59;;;5.89;100.00
57114;BME280;42994;51.606;9.988;2024-02-21T04:44:47;99686.72;;;5.87;100.00
57114;BME280;42994;51.606;9.988;2024-02-21T04:47:14;99690.38;;;5.86;100.00
57114;BME280;42994;51.606;9.988;2024-02-21T04:49:40;99697.66;;;5.84;100.00
57114;BME280;42994;51.606;9.988;2024-02-21T04:52:07;99711.66;;;5.86;100.00
57114;BME280;42994;51.606;9.988;2024-02-21T04:54:34;99724.09;;;5.86;100.00
57114;BME280;42994;51.606;9.988;2024-02-21T04:57:01;99718.78;;;5.86;100.00
57114;BME280;42994;51.606;9.988;2024-02-21T04:59:29;99717.81;;;5.87;100.00
57114;BME280;42994;51.606;9.988;2024-02-21T05:01:56;99720.47;;;5.87;100.00
57114;BME280;42994;51.606;9.988;2024-02-21T05:04:24;99718.97;;;5.84;100.00
57114;BME280;42994;51.606;9.988;2024-02-21T05:06:50;99724.97;;;5.86;100.00
57114;BME280;42994;51.606;9.988;2024-02-21T05:09:17;99709.00;;;5.86;100.00
57114;BME280;42994;51.606;9.988;2024-02-21T05:11:43;99704.66;;;5.85;100.00
57114;BME280;42994;51.606;9.988;2024-02-21T05:14:10;99716.44;;;5.83;100.00
57114;BME280;42994;51.606;9.988;2024-02-21T05:16:39;99707.31;;;5.85;100.00
57114;BME280;42994;51.606;9.988;2024-02-21T05:19:06;99709.97;;;5.85;100.00
57114;BME280;42994;51.606;9.988;2024-02-21T05:21:33;99713.31;;;5.87;100.00
57114;BME280;42994;51.606;9.988;2024-02-21T05:23:59;99717.00;;;5.86;100.00
57114;BME280;42994;51.606;9.988;2024-02-21T05:26:27;99719.66;;;5.86;100.00
57114;BME280;42994;51.606;9.988;2024-02-21T05:28:54;99725.09;;;5.85;100.00
57114;BME280;42994;51.606;9.988;2024-02-21T05:31:20;99723.00;;;5.88;100.00
57114;BME280;42994;51.606;9.988;2024-02-21T05:33:48;99731.94;;;5.87;100.00
57114;BME280;42994;51.606;9.988;2024-02-21T05:36:15;99726.78;;;5.86;100.00
57114;BME280;42994;51.606;9.988;2024-02-21T05:38:42;99727.63;;;5.86;100.00
57114;BME280;42994;51.606;9.988;2024-02-21T05:41:08;99723.13;;;5.87;100.00
57114;BME280;42994;51.606;9.988;2024-02-21T05:43:35;99733.50;;;5.90;100.00
57114;BME280;42994;51.606;9.988;2024-02-21T05:46:02;99736.31;;;5.88;100.00
57114;BME280;42994;51.606;9.988;2024-02-21T05:48:28;99728.47;;;5.87;100.00
57114;BME280;42994;51.606;9.988;2024-02-21T05:50:56;99728.19;;;5.90;100.00
57114;BME280;42994;51.606;9.988;2024-02-21T05:53:23;99740.63;;;5.89;100.00
57114;BME280;42994;51.606;9.988;2024-02-21T05:55:49;99740.50;;;5.91;100.00
57114;BME280;42994;51.606;9.988;2024-02-21T05:58:16;99731.69;;;5.90;100.00
57114;BME280;42994;51.606;9.988;2024-02-21T06:00:43;99737.69;;;5.92;100.00
57114;BME280;42994;51.606;9.988;2024-02-21T06:03:09;99727.19;;;5.91;100.00
57114;BME280;42994;51.606;9.988;2024-02-21T06:05:37;99729.56;;;5.94;100.00
57114;BME280;42994;51.606;9.988;2024-02-21T06:08:06;99732.38;;;5.92;100.00
57114;BME280;42994;51.606;9.988;2024-02-21T06:10:33;99728.72;;;5.93;100.00
57114;BME280;42994;51.606;9.988;2024-02-21T06:13:00;99715.56;;;5.92;100.00
57114;BME280;42994;51.606;9.988;2024-02-21T06:15:26;99725.22;;;5.93;100.00
57114;BME280;42994;51.606;9.988;2024-02-21T06:17:53;99704.94;;;5.92;100.00
57114;BME280;42994;51.606;9.988;2024-02-21T06:20:20;99702.41;;;5.90;100.00
57114;BME280;42994;51.606;9.988;2024-02-21T06:22:46;99690.06;;;5.89;100.00
57114;BME280;42994;51.606;9.988;2024-02-21T06:25:14;99684.06;;;5.87;100.00
57114;BME280;42994;51.606;9.988;2024-02-21T06:27:41;99683.09;;;5.88;100.00
57114;BME280;42994;51.606;9.988;2024-02-21T06:30:09;99684.75;;;5.89;100.00
57114;BME280;42994;51.606;9.988;2024-02-21T06:32:35;99662.63;;;5.89;100.00
57114;BME280;42994;51.606;9.988;2024-02-21T06:35:04;99670.75;;;5.87;100.00
57114;BME280;42994;51.606;9.988;2024-02-21T06:37:30;99659.00;;;5.90;100.00
57114;BME280;42994;51.606;9.988;2024-02-21T06:39:57;99657.44;;;5.87;100.00
57114;BME280;42994;51.606;9.988;2024-02-21T06:42:25;99646.66;;;5.89;100.00
57114;BME280;42994;51.606;9.988;2024-02-21T06:44:52;99654.50;;;5.90;100.00
57114;BME280;42994;51.606;9.988;2024-02-21T06:47:19;99645.69;;;5.90;100.00
57114;BME280;42994;51.606;9.988;2024-02-21T06:49:48;99652.53;;;5.92;100.00
57114;BME280;42994;51.606;9.988;2024-02-21T06:52:17;99659.56;;;5.93;100.00
57114;BME280;42994;51.606;9.988;2024-02-21T06:54:45;99664.88;;;5.93;100.00
57114;BME280;42994;51.606;9.988;2024-02-21T06:57:12;99643.03;;;5.90;100.00
57114;BME280;42994;51.606;9.988;2024-02-21T06:59:40;99651.56;;;5.93;100.00
57114;BME280;42994;51.606;9.988;2024-02-21T07:02:07;99646.25;;;5.93;100.00
57114;BME280;42994;51.606;9.988;2024-02-21T07:04:34;99642.72;;;5.93;100.00
57114;BME280;42994;51.606;9.988;2024-02-21T07:07:00;99637.41;;;5.93;100.00
57114;BME280;42994;51.606;9.988;2024-02-21T07:09:27;99638.25;;;5.93;100.00
57114;BME280;42994;51.606;9.988;2024-02-21T07:11:57;99636.56;;;5.92;100.00
57114;BME280;42994;51.606;9.988;2024-02-21T07:14:25;99639.09;;;5.94;100.00
57114;BME280;42994;51.606;9.988;2024-02-21T07:16:53;99635.19;;;5.98;100.00
57114;BME280;42994;51.606;9.988;2024-02-21T07:19:20;99628.44;;;6.04;100.00
57114;BME280;42994;51.606;9.988;2024-02-21T07:21:46;99621.84;;;6.08;100.00
57114;BME280;42994;51.606;9.988;2024-02-21T07:24:13;99618.88;;;6.11;100.00
57114;BME280;42994;51.606;9.988;2024-02-21T07:26:41;99616.22;;;6.11;100.00
57114;BME280;42994;51.606;9.988;2024-02-21T07:29:08;99605.28;;;6.14;100.00
57114;BME280;42994;51.606;9.988;2024-02-21T07:31:38;99581.31;;;6.14;100.00
57114;BME280;42994;51.606;9.988;2024-02-21T07:34:07;99565.50;;;6.12;100.00
57114;BME280;42994;51.606;9.988;2024-02-21T07:36:34;99564.81;;;6.10;100.00
57114;BME280;42994;51.606;9.988;2024-02-21T07:39:02;99564.81;;;6.10;100.00
57114;BME280;42994;51.606;9.988;2024-02-21T07:41:30;99561.00;;;6.13;100.00
57114;BME280;42994;51.606;9.988;2024-02-21T07:43:57;99545.72;;;6.15;100.00
57114;BME280;42994;51.606;9.988;2024-02-21T07:46:24;99548.22;;;6.16;100.00
57114;BME280;42994;51.606;9.988;2024-02-21T07:48:50;99551.91;;;6.15;100.00
57114;BME280;42994;51.606;9.988;2024-02-21T07:51:18;99561.50;;;6.26;100.00
57114;BME280;42994;51.606;9.988;2024-02-21T07:53:45;99557.69;;;6.29;100.00
57114;BME280;42994;51.606;9.988;2024-02-21T07:56:13;99559.91;;;6.33;100.00
57114;BME280;42994;51.606;9.988;2024-02-21T07:58:40;99560.19;;;6.30;100.00
57114;BME280;42994;51.606;9.988;2024-02-21T08:01:07;99543.69;;;6.27;100.00
57114;BME280;42994;51.606;9.988;2024-02-21T08:03:34;99542.38;;;6.31;100.00
57114;BME280;42994;51.606;9.988;2024-02-21T08:06:02;99541.09;;;6.35;100.00
57114;BME280;42994;51.606;9.988;2024-02-21T08:08:30;99543.47;;;6.38;100.00
57114;BME280;42994;51.606;9.988;2024-02-21T08:10:56;99542.63;;;6.38;100.00
57114;BME280;42994;51.606;9.988;2024-02-21T08:13:23;99529.31;;;6.38;100.00
57114;BME280;42994;51.606;9.988;2024-02-21T08:15:49;99539.28;;;6.35;100.00
57114;BME280;42994;51.606;9.988;2024-02-21T08:18:16;99533.28;;;6.33;100.00
57114;BME280;42994;51.606;9.988;2024-02-21T08:20:43;99536.25;;;6.30;100.00
57114;BME280;42994;51.606;9.988;2024-02-21T08:23:09;99535.22;;;6.31;100.00
57114;BME280;42994;51.606;9.988;2024-02-21T08:25:37;99535.63;;;6.37;100.00
57114;BME280;42994;51.606;9.988;2024-02-21T08:28:05;99528.16;;;6.40;100.00
57114;BME280;42994;51.606;9.988;2024-02-21T08:30:33;99529.72;;;6.43;100.00
57114;BME280;42994;51.606;9.988;2024-02-21T08:32:59;99516.91;;;6.46;100.00
57114;BME280;42994;51.606;9.988;2024-02-21T08:35:26;99522.59;;;6.51;100.00
57114;BME280;42994;51.606;9.988;2024-02-21T08:37:53;99527.34;;;6.58;100.00
57114;BME280;42994;51.606;9.988;2024-02-21T08:40:19;99508.69;;;6.58;100.00
57114;BME280;42994;51.606;9.988;2024-02-21T08:42:48;99501.75;;;6.65;100.00
57114;BME280;42994;51.606;9.988;2024-02-21T08:45:15;99501.97;;;6.71;100.00
57114;BME280;42994;51.606;9.988;2024-02-21T08:47:42;99500.69;;;6.76;100.00
57114;BME280;42994;51.606;9.988;2024-02-21T08:50:10;99481.50;;;6.72;100.00
57114;BME280;42994;51.606;9.988;2024-02-21T08:52:36;99480.56;;;6.81;100.00
57114;BME280;42994;51.606;9.988;2024-02-21T08:55:04;99464.09;;;6.86;100.00
57114;BME280;42994;51.606;9.988;2024-02-21T08:57:30;99455.56;;;6.82;100.00
57114;BME280;42994;51.606;9.988;2024-02-21T09:00:05;99448.47;;;6.91;100.00
57114;BME280;42994;51.606;9.988;2024-02-21T09:02:35;99433.16;;;6.93;100.00
57114;BME280;42994;51.606;9.988;2024-02-21T09:05:03;99428.84;;;6.92;100.00
57114;BME280;42994;51.606;9.988;2024-02-21T09:07:31;99424.72;;;6.98;100.00
57114;BME280;42994;51.606;9.988;2024-02-21T09:09:57;99416.88;;;6.96;100.00
57114;BME280;42994;51.606;9.988;2024-02-21T09:12:24;99417.22;;;7.01;100.00
57114;BME280;42994;51.606;9.988;2024-02-21T09:14:51;99415.91;;;7.05;100.00
57114;BME280;42994;51.606;9.988;2024-02-21T09:17:19;99420.94;;;7.08;100.00
57114;BME280;42994;51.606;9.988;2024-02-21T09:19:46;99420.06;;;7.08;100.00
57114;BME280;42994;51.606;9.988;2024-02-21T09:22:13;99400.75;;;7.06;100.00
57114;BME280;42994;51.606;9.988;2024-02-21T09:24:39;99394.44;;;7.07;100.00
57114;BME280;42994;51.606;9.988;2024-02-21T09:27:06;99391.63;;;7.17;100.00
57114;BME280;42994;51.606;9.988;2024-02-21T09:29:33;99387.63;;;7.21;100.00
57114;BME280;42994;51.606;9.988;2024-02-21T09:31:59;99378.66;;;7.22;100.00
57114;BME280;42994;51.606;9.988;2024-02-21T09:34:27;99367.63;;;7.17;100.00
57114;BME280;42994;51.606;9.988;2024-02-21T09:36:54;99364.00;;;7.26;100.00
57114;BME280;42994;51.606;9.988;2024-02-21T09:39:21;99373.34;;;7.30;100.00
57114;BME280;42994;51.606;9.988;2024-02-21T09:41:50;99363.69;;;7.29;100.00
57114;BME280;42994;51.606;9.988;2024-02-21T09:44:21;99353.88;;;7.38;100.00
57114;BME280;42994;51.606;9.988;2024-02-21T09:46:52;99358.88;;;7.41;100.00
57114;BME280;42994;51.606;9.988;2024-02-21T09:49:31;99353.72;;;7.47;100.00
57114;BME280;42994;51.606;9.988;2024-02-21T09:52:00;99345.72;;;7.47;100.00
57114;BME280;42994;51.606;9.988;2024-02-21T09:54:28;99356.03;;;7.34;100.00
57114;BME280;42994;51.606;9.988;2024-02-21T09:56:55;99345.03;;;7.37;100.00
57114;BME280;42994;51.606;9.988;2024-02-21T09:59:22;99346.56;;;7.48;100.00
57114;BME280;42994;51.606;9.988;2024-02-21T10:01:50;99346.03;;;7.44;100.00
57114;BME280;42994;51.606;9.988;2024-02-21T10:04:17;99348.41;;;7.39;100.00
57114;BME280;42994;51.606;9.988;2024-02-21T10:06:46;99338.41;;;7.41;100.00
57114;BME280;42994;51.606;9.988;2024-02-21T10:09:20;99339.06;;;7.51;100.00
57114;BME280;42994;51.606;9.988;2024-02-21T10:11:48;99333.22;;;7.48;100.00
57114;BME280;42994;51.606;9.988;2024-02-21T10:14:15;99334.41;;;7.54;100.00
57114;BME280;42994;51.606;9.988;2024-02-21T10:16:42;99333.91;;;7.66;100.00
57114;BME280;42994;51.606;9.988;2024-02-21T10:19:16;99338.78;;;7.71;100.00
57114;BME280;42994;51.606;9.988;2024-02-21T10:21:43;99332.75;;;7.61;100.00
57114;BME280;42994;51.606;9.988;2024-02-21T10:24:12;99334.94;;;7.65;100.00
57114;BME280;42994;51.606;9.988;2024-02-21T10:26:38;99335.75;;;7.66;100.00
57114;BME280;42994;51.606;9.988;2024-02-21T10:29:05;99332.25;;;7.49;100.00
57114;BME280;42994;51.606;9.988;2024-02-21T10:31:32;99318.09;;;7.65;100.00
57114;BME280;42994;51.606;9.988;2024-02-21T10:34:00;99323.44;;;7.73;100.00
57114;BME280;42994;51.606;9.988;2024-02-21T10:36:28;99318.28;;;7.80;100.00
57114;BME280;42994;51.606;9.988;2024-02-21T10:38:55;99309.59;;;7.78;100.00
57114;BME280;42994;51.606;9.988;2024-02-21T10:41:24;99297.75;;;7.72;100.00
57114;BME280;42994;51.606;9.988;2024-02-21T10:43:54;99299.75;;;7.62;100.00
57114;BME280;42994;51.606;9.988;2024-02-21T10:46:22;99281.75;;;7.72;100.00
57114;BME280;42994;51.606;9.988;2024-02-21T10:49:01;99282.72;;;7.96;100.00
57114;BME280;42994;51.606;9.988;2024-02-21T10:51:32;99279.22;;;7.95;100.00
57114;BME280;42994;51.606;9.988;2024-02-21T10:54:18;99278.22;;;7.88;100.00
57114;BME280;42994;51.606;9.988;2024-02-21T10:56:51;99269.91;;;7.75;100.00
57114;BME280;42994;51.606;9.988;2024-02-21T10:59:20;99279.75;;;7.74;100.00
57114;BME280;42994;51.606;9.988;2024-02-21T11:01:47;99270.22;;;7.96;100.00
57114;BME280;42994;51.606;9.988;2024-02-21T11:04:14;99269.06;;;7.82;100.00
57114;BME280;42994;51.606;9.988;2024-02-21T11:06:41;99269.06;;;7.91;100.00
57114;BME280;42994;51.606;9.988;2024-02-21T11:09:10;99272.03;;;7.96;100.00
57114;BME280;42994;51.606;9.988;2024-02-21T11:11:38;99263.88;;;7.89;100.00
57114;BME280;42994;51.606;9.988;2024-02-21T11:14:08;99256.22;;;7.94;100.00
57114;BME280;42994;51.606;9.988;2024-02-21T11:16:36;99257.72;;;8.05;100.00
57114;BME280;42994;51.606;9.988;2024-02-21T11:19:05;99257.19;;;8.18;100.00
57114;BME280;42994;51.606;9.988;2024-02-21T11:21:33;99254.34;;;8.11;100.00
57114;BME280;42994;51.606;9.988;2024-02-21T11:24:00;99245.69;;;7.93;100.00
57114;BME280;42994;51.606;9.988;2024-02-21T11:26:28;99233.34;;;7.92;100.00
57114;BME280;42994;51.606;9.988;2024-02-21T11:28:57;99233.19;;;8.01;100.00
57114;BME280;42994;51.606;9.988;2024-02-21T11:31:26;99221.88;;;7.75;100.00
57114;BME280;42994;51.606;9.988;2024-02-21T11:33:53;99213.00;;;7.82;100.00
57114;BME280;42994;51.606;9.988;2024-02-21T11:36:27;99202.16;;;7.84;100.00
57114;BME280;42994;51.606;9.988;2024-02-21T11:38:54;99198.00;;;7.89;100.00
57114;BME280;42994;51.606;9.988;2024-02-21T11:41:20;99196.47;;;8.03;100.00
57114;BME280;42994;51.606;9.988;2024-02-21T11:43:49;99189.47;;;7.94;100.00
57114;BME280;42994;51.606;9.988;2024-02-21T11:46:16;99188.28;;;8.05;100.00
57114;BME280;42994;51.606;9.988;2024-02-21T11:48:45;99184.31;;;7.93;100.00
57114;BME280;42994;51.606;9.988;2024-02-21T11:51:20;99178.94;;;8.09;100.00
57114;BME280;42994;51.606;9.988;2024-02-21T11:53:47;99176.09;;;8.11;100.00
57114;BME280;42994;51.606;9.988;2024-02-21T11:56:14;99169.78;;;8.03;100.00
57114;BME280;42994;51.606;9.988;2024-02-21T11:58:40;99172.66;;;7.77;100.00
57114;BME280;42994;51.606;9.988;2024-02-21T12:01:08;99160.63;;;7.89;100.00
57114;BME280;42994;51.606;9.988;2024-02-21T12:03:35;99158.19;;;8.19;100.00
57114;BME280;42994;51.606;9.988;2024-02-21T12:06:03;99151.59;;;7.99;100.00
57114;BME280;42994;51.606;9.988;2024-02-21T12:08:40;99141.72;;;7.99;100.00
57114;BME280;42994;51.606;9.988;2024-02-21T12:11:16;99128.53;;;8.14;100.00
57114;BME280;42994;51.606;9.988;2024-02-21T12:13:43;99136.63;;;8.29;100.00
57114;BME280;42994;51.606;9.988;2024-02-21T12:16:11;99128.41;;;8.39;100.00
57114;BME280;42994;51.606;9.988;2024-02-21T12:18:39;99124.22;;;8.44;100.00
57114;BME280;42994;51.606;9.988;2024-02-21T12:21:07;99108.72;;;8.40;100.00
57114;BME280;42994;51.606;9.988;2024-02-21T12:23:33;99109.38;;;8.34;100.00
57114;BME280;42994;51.606;9.988;2024-02-21T12:26:00;99090.69;;;8.34;100.00
57114;BME280;42994;51.606;9.988;2024-02-21T12:28:27;99091.34;;;8.44;100.00
57114;BME280;42994;51.606;9.988;2024-02-21T12:30:54;99082.59;;;8.19;100.00
57114;BME280;42994;51.606;9.988;2024-02-21T12:33:21;99081.50;;;8.36;100.00
57114;BME280;42994;51.606;9.988;2024-02-21T12:35:48;99080.38;;;8.31;100.00
57114;BME280;42994;51.606;9.988;2024-02-21T12:38:16;99083.66;;;8.41;100.00
57114;BME280;42994;51.606;9.988;2024-02-21T12:40:43;99086.09;;;8.19;100.00
57114;BME280;42994;51.606;9.988;2024-02-21T12:43:09;99075.97;;;8.46;100.00
57114;BME280;42994;51.606;9.988;2024-02-21T12:45:36;99074.72;;;8.57;100.00
57114;BME280;42994;51.606;9.988;2024-02-21T12:48:03;99061.38;;;7.94;100.00
57114;BME280;42994;51.606;9.988;2024-02-21T12:50:30;99069.78;;;8.14;100.00
57114;BME280;42994;51.606;9.988;2024-02-21T12:52:58;99058.50;;;7.96;100.00
57114;BME280;42994;51.606;9.988;2024-02-21T12:55:26;99069.69;;;8.31;100.00
57114;BME280;42994;51.606;9.988;2024-02-21T12:57:52;99068.41;;;8.18;100.00
57114;BME280;42994;51.606;9.988;2024-02-21T13:00:19;99064.03;;;8.25;100.00
57114;BME280;42994;51.606;9.988;2024-02-21T13:02:46;99071.00;;;8.35;100.00